createdAt,value
2023-03-22T00:01:32.406Z,6.03
2023-03-22T00:03:59.133Z,6.03
2023-03-22T00:06:26.706Z,5.65
2023-03-22T00:08:54.207Z,8.88
2023-03-22T00:11:22.592Z,7.53
2023-03-22T00:13:52.487Z,20.48
2023-03-22T00:16:20.737Z,6.47
2023-03-22T00:18:47.330Z,8.55
2023-03-22T00:21:16.204Z,6.40
2023-03-22T00:23:43.524Z,3.60
2023-03-22T00:26:11.718Z,5.10
2023-03-22T00:28:38.437Z,8.40
2023-03-22T00:31:05.882Z,6.60
2023-03-22T00:33:32.904Z,9.60
2023-03-22T00:36:02.088Z,6.50
2023-03-22T00:38:42.777Z,8.52
2023-03-22T00:41:14.333Z,7.03
2023-03-22T00:43:41.556Z,7.75
2023-03-22T00:46:08.966Z,8.40
2023-03-22T00:48:36.017Z,4.25
2023-03-22T00:51:03.114Z,6.93
2023-03-22T00:53:29.544Z,13.17
2023-03-22T00:55:59.633Z,8.63
2023-03-22T00:58:26.303Z,5.00
2023-03-22T01:00:52.856Z,5.50
2023-03-22T01:03:21.783Z,4.53
2023-03-22T01:05:49.466Z,3.33
2023-03-22T01:08:16.828Z,3.78
2023-03-22T01:10:44.796Z,6.18
2023-03-22T01:13:12.200Z,7.40
2023-03-22T01:15:38.634Z,3.50
2023-03-22T01:18:05.532Z,3.30
2023-03-22T01:20:32.173Z,3.75
2023-03-22T01:22:59.420Z,6.82
2023-03-22T01:25:26.054Z,4.50
2023-03-22T01:27:52.504Z,2.95
2023-03-22T01:30:19.150Z,4.03
2023-03-22T01:32:45.721Z,5.20
2023-03-22T01:35:12.212Z,3.70
2023-03-22T01:37:38.724Z,10.02
2023-03-22T01:40:06.630Z,6.60
2023-03-22T01:42:33.310Z,6.30
2023-03-22T01:45:14.932Z,6.22
2023-03-22T01:47:47.335Z,4.45
2023-03-22T01:50:15.057Z,4.30
2023-03-22T01:52:41.630Z,8.25
2023-03-22T01:55:09.535Z,4.60
2023-03-22T01:57:37.575Z,4.80
2023-03-22T02:00:15.414Z,3.10
2023-03-22T02:02:48.213Z,5.22
2023-03-22T02:05:15.997Z,7.22
2023-03-22T02:07:43.229Z,5.60
2023-03-22T02:10:18.514Z,7.05
2023-03-22T02:13:03.803Z,8.55
2023-03-22T02:15:46.972Z,4.88
2023-03-22T02:18:28.699Z,5.38
2023-03-22T02:20:55.216Z,6.17
2023-03-22T02:23:59.204Z,4.28
2023-03-22T02:26:39.293Z,6.45
2023-03-22T02:30:05.745Z,4.72
2023-03-22T02:33:05.554Z,4.13
2023-03-22T02:35:55.545Z,4.17
2023-03-22T02:38:45.641Z,7.13
2023-03-22T02:41:54.057Z,8.00
2023-03-22T02:44:23.508Z,5.60
2023-03-22T02:47:04.524Z,3.92
2023-03-22T02:49:48.017Z,7.07
2023-03-22T02:52:21.520Z,5.43
2023-03-22T02:54:57.590Z,7.38
2023-03-22T02:57:35.778Z,9.98
2023-03-22T03:00:13.124Z,9.40
2023-03-22T03:02:48.794Z,8.73
2023-03-22T03:05:17.382Z,11.70
2023-03-22T03:07:50.414Z,11.18
2023-03-22T03:10:18.594Z,11.07
2023-03-22T03:12:45.107Z,8.55
2023-03-22T03:15:18.601Z,12.37
2023-03-22T03:17:54.379Z,12.15
2023-03-22T03:20:48.748Z,11.25
2023-03-22T03:23:28.394Z,11.20
2023-03-22T03:26:07.039Z,10.70
2023-03-22T03:28:57.044Z,10.37
2023-03-22T03:31:48.155Z,14.05
2023-03-22T03:34:36.100Z,10.35
2023-03-22T03:37:08.465Z,13.55
2023-03-22T03:39:40.056Z,15.95
2023-03-22T03:42:11.256Z,12.60
2023-03-22T03:44:39.029Z,15.20
2023-03-22T03:47:07.745Z,11.13
2023-03-22T03:49:35.213Z,13.25
2023-03-22T03:52:03.442Z,15.77
2023-03-22T03:54:30.017Z,12.47
2023-03-22T03:56:56.667Z,13.80
2023-03-22T03:59:23.271Z,13.02
2023-03-22T04:01:52.900Z,18.50
2023-03-22T04:04:26.897Z,17.55
2023-03-22T04:07:01.283Z,14.50
2023-03-22T04:09:36.489Z,11.13
2023-03-22T04:12:03.653Z,14.63
2023-03-22T04:14:30.445Z,11.90
2023-03-22T04:16:57.036Z,12.23
2023-03-22T04:19:23.535Z,16.50
2023-03-22T04:21:53.186Z,12.88
2023-03-22T04:24:21.584Z,12.40
2023-03-22T04:26:48.353Z,12.52
2023-03-22T04:29:15.997Z,13.07
2023-03-22T04:31:42.485Z,12.00
2023-03-22T04:34:09.054Z,11.25
2023-03-22T04:36:39.408Z,9.80
2023-03-22T04:39:09.437Z,11.98
2023-03-22T04:41:37.140Z,11.65
2023-03-22T04:44:05.455Z,10.87
2023-03-22T04:46:36.887Z,14.27
2023-03-22T04:49:05.184Z,10.90
2023-03-22T04:51:32.176Z,9.98
2023-03-22T04:53:58.952Z,9.30
2023-03-22T04:56:26.205Z,9.30
2023-03-22T04:58:52.641Z,10.95
2023-03-22T05:01:19.120Z,10.55
2023-03-22T05:03:47.326Z,13.32
2023-03-22T05:06:14.678Z,10.73
2023-03-22T05:08:41.642Z,13.13
2023-03-22T05:11:11.785Z,8.73
2023-03-22T05:13:38.458Z,10.20
2023-03-22T05:16:05.779Z,11.55
2023-03-22T05:18:32.903Z,9.85
2023-03-22T05:21:00.861Z,10.13
2023-03-22T05:23:27.598Z,8.00
2023-03-22T05:25:54.334Z,10.60
2023-03-22T05:28:22.201Z,9.82
2023-03-22T05:30:49.640Z,11.02
2023-03-22T05:33:21.473Z,9.07
2023-03-22T05:35:50.042Z,9.90
2023-03-22T05:38:16.927Z,9.13
2023-03-22T05:40:44.283Z,11.40
2023-03-22T05:43:11.051Z,10.25
2023-03-22T05:45:37.594Z,8.67
2023-03-22T05:48:04.492Z,10.85
2023-03-22T05:50:31.808Z,10.38
2023-03-22T05:52:58.883Z,9.68
2023-03-22T05:55:26.024Z,9.52
2023-03-22T05:57:54.014Z,8.30
2023-03-22T06:00:21.897Z,6.57
2023-03-22T06:02:49.917Z,12.77
2023-03-22T06:05:17.564Z,9.18
2023-03-22T06:07:44.670Z,10.35
2023-03-22T06:10:13.349Z,9.70
2023-03-22T06:12:40.269Z,10.05
2023-03-22T06:15:08.205Z,9.65
2023-03-22T06:17:35.258Z,6.72
2023-03-22T06:20:06.568Z,8.80
2023-03-22T06:22:33.508Z,6.20
2023-03-22T06:25:01.119Z,10.50
2023-03-22T06:27:27.692Z,9.85
2023-03-22T06:29:54.835Z,7.97
2023-03-22T06:32:23.627Z,5.95
2023-03-22T06:34:53.911Z,6.90
2023-03-22T06:37:20.940Z,7.10
2023-03-22T06:39:47.509Z,6.70
2023-03-22T06:42:13.945Z,7.05
2023-03-22T06:44:43.801Z,9.30
2023-03-22T06:47:11.605Z,9.73
2023-03-22T06:49:38.395Z,6.03
2023-03-22T06:52:05.258Z,7.18
2023-03-22T06:54:31.899Z,7.90
2023-03-22T06:56:58.336Z,11.32
2023-03-22T06:59:24.858Z,10.47
2023-03-22T07:01:51.328Z,9.30
2023-03-22T07:04:17.761Z,8.38
2023-03-22T07:06:44.240Z,7.53
2023-03-22T07:09:10.630Z,10.38
2023-03-22T07:11:37.264Z,5.47
2023-03-22T07:14:03.983Z,7.13
2023-03-22T07:16:30.514Z,7.50
2023-03-22T07:18:57.299Z,3.45
2023-03-22T07:21:23.775Z,8.88
2023-03-22T07:23:50.280Z,8.63
2023-03-22T07:26:16.835Z,9.05
2023-03-22T07:28:44.575Z,4.90
2023-03-22T07:31:12.651Z,9.30
2023-03-22T07:33:39.823Z,8.13
2023-03-22T07:36:07.606Z,9.40
2023-03-22T07:38:34.665Z,6.03
2023-03-22T07:41:01.292Z,6.53
2023-03-22T07:43:27.791Z,8.43
2023-03-22T07:45:54.314Z,8.25
2023-03-22T07:48:22.754Z,8.23
2023-03-22T07:50:54.204Z,7.72
2023-03-22T07:53:20.849Z,8.02
2023-03-22T07:55:47.810Z,7.07
2023-03-22T07:58:14.903Z,5.38
2023-03-22T08:00:41.608Z,5.73
2023-03-22T08:03:10.583Z,8.52
2023-03-22T08:05:41.274Z,6.70
2023-03-22T08:08:08.318Z,9.30
2023-03-22T08:10:35.209Z,6.13
2023-03-22T08:13:01.841Z,8.07
2023-03-22T08:15:28.239Z,5.05
2023-03-22T08:17:57.861Z,8.35
2023-03-22T08:20:27.482Z,6.68
2023-03-22T08:22:54.537Z,6.03
2023-03-22T08:25:21.569Z,8.20
2023-03-22T08:27:48.100Z,5.30
2023-03-22T08:30:15.434Z,9.18
2023-03-22T08:32:42.092Z,12.35
2023-03-22T08:35:09.354Z,4.35
2023-03-22T08:37:36.254Z,9.37
2023-03-22T08:40:04.858Z,6.95
2023-03-22T08:42:31.317Z,7.90
2023-03-22T08:44:57.766Z,6.30
2023-03-22T08:47:24.195Z,5.30
2023-03-22T08:49:50.673Z,9.77
2023-03-22T08:52:17.305Z,8.43
2023-03-22T08:54:43.811Z,8.20
2023-03-22T08:57:11.014Z,8.98
2023-03-22T08:59:37.456Z,8.63
2023-03-22T09:02:04.041Z,3.47
2023-03-22T09:04:30.909Z,6.68
2023-03-22T09:06:57.418Z,4.72
2023-03-22T09:09:23.952Z,5.45
2023-03-22T09:11:50.637Z,7.15
2023-03-22T09:14:17.132Z,7.83
2023-03-22T09:16:43.660Z,3.00
2023-03-22T09:19:10.509Z,4.22
2023-03-22T09:21:37.557Z,7.55
2023-03-22T09:24:04.255Z,6.40
2023-03-22T09:26:30.856Z,6.93
2023-03-22T09:28:57.278Z,6.00
2023-03-22T09:31:23.807Z,5.07
2023-03-22T09:33:50.557Z,6.78
2023-03-22T09:36:17.060Z,7.30
2023-03-22T09:38:43.751Z,7.73
2023-03-22T09:41:20.258Z,5.40
2023-03-22T09:43:59.794Z,7.03
2023-03-22T09:46:36.866Z,4.60
2023-03-22T09:49:10.739Z,8.32
2023-03-22T09:51:50.997Z,6.40
2023-03-22T09:54:31.128Z,7.25
2023-03-22T09:57:20.510Z,11.07
2023-03-22T10:00:12.855Z,6.72
2023-03-22T10:03:01.876Z,5.57
2023-03-22T10:05:52.591Z,8.07
2023-03-22T10:08:39.508Z,9.57
2023-03-22T10:11:21.778Z,9.38
2023-03-22T10:14:23.805Z,8.25
2023-03-22T10:16:56.484Z,7.60
2023-03-22T10:19:35.959Z,9.07
2023-03-22T10:22:05.975Z,7.35
2023-03-22T10:24:40.187Z,6.80
2023-03-22T10:27:18.373Z,11.93
2023-03-22T10:29:53.806Z,4.45
2023-03-22T10:32:29.208Z,3.80
2023-03-22T10:34:56.336Z,7.32
2023-03-22T10:37:29.367Z,9.95
2023-03-22T10:39:59.028Z,5.80
2023-03-22T10:42:29.938Z,5.82
2023-03-22T10:45:04.119Z,5.00
2023-03-22T10:47:42.994Z,11.75
2023-03-22T10:50:18.569Z,5.40
2023-03-22T10:52:58.627Z,6.50
2023-03-22T10:55:25.907Z,6.47
2023-03-22T10:58:12.221Z,6.50
2023-03-22T11:00:43.398Z,5.07
2023-03-22T11:03:38.117Z,6.18
2023-03-22T11:06:20.883Z,6.28
2023-03-22T11:09:11.574Z,5.53
2023-03-22T11:11:59.375Z,9.17
2023-03-22T11:14:37.427Z,4.72
2023-03-22T11:17:06.737Z,3.55
2023-03-22T11:19:33.233Z,5.00
2023-03-22T11:22:01.301Z,5.78
2023-03-22T11:24:31.425Z,2.47
2023-03-22T11:27:03.629Z,6.25
2023-03-22T11:29:40.529Z,9.05
2023-03-22T11:32:31.450Z,4.45
2023-03-22T11:35:13.193Z,6.18
2023-03-22T11:37:52.714Z,8.00
2023-03-22T11:40:30.863Z,6.88
2023-03-22T11:43:17.696Z,5.78
2023-03-22T11:45:45.116Z,8.82
2023-03-22T11:48:23.077Z,6.28
2023-03-22T11:50:58.600Z,4.50
2023-03-22T11:53:27.616Z,5.00
2023-03-22T11:55:57.558Z,7.95
2023-03-22T11:59:04.051Z,6.20
2023-03-22T12:01:37.277Z,6.55
2023-03-22T12:04:08.059Z,5.33
2023-03-22T12:06:40.088Z,5.35
2023-03-22T12:09:16.283Z,8.35
2023-03-22T12:11:49.624Z,4.82
2023-03-22T12:14:43.664Z,4.72
2023-03-22T12:17:34.010Z,7.40
2023-03-22T12:20:07.191Z,5.85
2023-03-22T12:22:37.554Z,3.85
2023-03-22T12:25:09.902Z,5.60
2023-03-22T12:27:41.474Z,5.10
2023-03-22T12:30:16.397Z,4.40
2023-03-22T12:32:52.521Z,3.20
2023-03-22T12:35:24.417Z,4.40
2023-03-22T12:37:56.403Z,3.50
2023-03-22T12:40:45.752Z,5.13
2023-03-22T12:43:19.027Z,6.57
2023-03-22T12:45:49.958Z,3.97
2023-03-22T12:48:21.635Z,5.07
2023-03-22T12:50:56.785Z,7.72
2023-03-22T12:53:31.202Z,5.25
2023-03-22T12:55:58.441Z,8.00
2023-03-22T12:58:26.220Z,4.68
2023-03-22T13:00:58.342Z,12.60
2023-03-22T13:03:28.803Z,4.82
2023-03-22T13:06:03.245Z,5.70
2023-03-22T13:09:08.911Z,4.17
2023-03-22T13:11:35.763Z,5.68
2023-03-22T13:14:02.379Z,4.72
2023-03-22T13:16:59.576Z,4.22
2023-03-22T13:19:37.606Z,4.10
2023-03-22T13:22:15.769Z,6.10
2023-03-22T13:25:10.840Z,4.18
2023-03-22T13:27:38.811Z,4.15
2023-03-22T13:30:22.127Z,6.20
2023-03-22T13:32:54.564Z,4.38
2023-03-22T13:35:46.012Z,5.37
2023-03-22T13:38:30.882Z,5.55
2023-03-22T13:41:02.635Z,4.18
2023-03-22T13:43:35.693Z,4.15
2023-03-22T13:46:07.242Z,5.25
2023-03-22T13:48:47.157Z,4.40
2023-03-22T13:51:21.843Z,5.50
2023-03-22T13:54:17.871Z,3.38
2023-03-22T13:56:47.651Z,4.55
2023-03-22T13:59:24.487Z,4.35
2023-03-22T14:01:57.430Z,4.47
2023-03-22T14:04:34.866Z,3.78
2023-03-22T14:07:11.963Z,4.55
2023-03-22T14:10:06.645Z,4.32
2023-03-22T14:12:55.340Z,5.18
2023-03-22T14:15:45.258Z,4.90
2023-03-22T14:18:25.705Z,5.38
2023-03-22T14:21:25.657Z,5.35
